sensor_id;sensor_type;location;lat;lon;timestamp;pressure;altitude;pressure_sealevel;temperature;humidity
45323;BME280;31382;50.200;8.674;2023-04-27T00:03:10;100550.66;;;9.68;52.36
45323;BME280;31382;50.200;8.674;2023-04-27T00:08:12;100547.28;;;9.66;52.31
45323;BME280;31382;50.200;8.674;2023-04-27T00:13:13;100545.06;;;9.61;52.33
45323;BME280;31382;50.200;8.674;2023-04-27T00:18:15;100533.69;;;9.67;52.83
45323;BME280;31382;50.200;8.674;2023-04-27T00:23:16;100542.59;;;9.68;52.65
45323;BME280;31382;50.200;8.674;2023-04-27T00:28:17;100534.53;;;9.68;52.70
45323;BME280;31382;50.200;8.674;2023-04-27T00:33:19;100519.78;;;9.64;53.22
45323;BME280;31382;50.200;8.674;2023-04-27T00:38:21;100521.78;;;9.62;52.95
45323;BME280;31382;50.200;8.674;2023-04-27T00:43:22;100524.28;;;9.63;53.39
45323;BME280;31382;50.200;8.674;2023-04-27T00:48:24;100529.31;;;9.58;53.01
45323;BME280;31382;50.200;8.674;2023-04-27T00:53:26;100529.31;;;9.50;53.66
45323;BME280;31382;50.200;8.674;2023-04-27T00:58:27;100523.59;;;9.45;53.10
45323;BME280;31382;50.200;8.674;2023-04-27T01:03:29;100524.38;;;9.29;53.63
45323;BME280;31382;50.200;8.674;2023-04-27T01:08:31;100531.72;;;9.10;54.25
45323;BME280;31382;50.200;8.674;2023-04-27T01:13:32;100542.06;;;9.05;54.40
45323;BME280;31382;50.200;8.674;2023-04-27T01:18:33;100542.72;;;8.99;54.35
45323;BME280;31382;50.200;8.674;2023-04-27T01:23:35;100543.22;;;8.95;54.64
45323;BME280;31382;50.200;8.674;2023-04-27T01:28:36;100539.81;;;8.92;54.71
45323;BME280;31382;50.200;8.674;2023-04-27T01:33:38;100539.63;;;8.86;54.79
45323;BME280;31382;50.200;8.674;2023-04-27T01:38:40;100549.38;;;8.87;54.92
45323;BME280;31382;50.200;8.674;2023-04-27T01:43:41;100553.59;;;8.63;55.09
45323;BME280;31382;50.200;8.674;2023-04-27T01:48:43;100551.94;;;8.44;55.32
45323;BME280;31382;50.200;8.674;2023-04-27T01:53:45;100564.59;;;8.34;56.24
45323;BME280;31382;50.200;8.674;2023-04-27T01:58:46;100568.03;;;8.44;55.20
45323;BME280;31382;50.200;8.674;2023-04-27T02:03:50;100567.41;;;8.50;54.83
45323;BME280;31382;50.200;8.674;2023-04-27T02:08:52;100571.66;;;8.61;54.75
45323;BME280;31382;50.200;8.674;2023-04-27T02:13:53;100565.16;;;8.64;54.91
45323;BME280;31382;50.200;8.674;2023-04-27T02:18:55;100569.19;;;8.68;55.64
45323;BME280;31382;50.200;8.674;2023-04-27T02:23:56;100569.03;;;8.69;55.09
45323;BME280;31382;50.200;8.674;2023-04-27T02:28:58;100571.88;;;8.68;55.24
45323;BME280;31382;50.200;8.674;2023-04-27T02:34:00;100573.66;;;8.59;55.74
45323;BME280;31382;50.200;8.674;2023-04-27T02:39:01;100583.47;;;8.50;55.36
45323;BME280;31382;50.200;8.674;2023-04-27T02:44:03;100587.38;;;8.38;55.52
45323;BME280;31382;50.200;8.674;2023-04-27T02:49:04;100581.81;;;8.31;55.81
45323;BME280;31382;50.200;8.674;2023-04-27T02:54:06;100583.28;;;8.26;55.61
45323;BME280;31382;50.200;8.674;2023-04-27T02:59:07;100581.03;;;8.21;55.52
45323;BME280;31382;50.200;8.674;2023-04-27T03:04:09;100578.53;;;8.20;56.04
45323;BME280;31382;50.200;8.674;2023-04-27T03:09:11;100578.22;;;8.23;55.95
45323;BME280;31382;50.200;8.674;2023-04-27T03:14:13;100572.66;;;7.98;56.27
45323;BME280;31382;50.200;8.674;2023-04-27T03:19:14;100568.00;;;8.00;56.03
45323;BME280;31382;50.200;8.674;2023-04-27T03:24:16;100567.72;;;8.11;56.18
45323;BME280;31382;50.200;8.674;2023-04-27T03:29:17;100568.66;;;8.20;56.15
45323;BME280;31382;50.200;8.674;2023-04-27T03:34:19;100569.13;;;8.16;55.79
45323;BME280;31382;50.200;8.674;2023-04-27T03:39:22;100556.25;;;8.19;55.14
45323;BME280;31382;50.200;8.674;2023-04-27T03:44:23;100558.16;;;8.27;55.49
45323;BME280;31382;50.200;8.674;2023-04-27T03:49:24;100559.16;;;8.26;55.91
45323;BME280;31382;50.200;8.674;2023-04-27T03:54:26;100555.13;;;8.22;56.04
45323;BME280;31382;50.200;8.674;2023-04-27T03:59:28;100556.78;;;8.23;56.26
45323;BME280;31382;50.200;8.674;2023-04-27T04:04:30;100569.34;;;8.22;56.38
45323;BME280;31382;50.200;8.674;2023-04-27T04:09:32;100569.50;;;8.21;56.23
45323;BME280;31382;50.200;8.674;2023-04-27T04:14:33;100574.56;;;8.24;56.36
45323;BME280;31382;50.200;8.674;2023-04-27T04:19:34;100572.69;;;8.24;56.19
45323;BME280;31382;50.200;8.674;2023-04-27T04:24:36;100583.28;;;8.26;56.50
45323;BME280;31382;50.200;8.674;2023-04-27T04:29:38;100582.81;;;8.12;56.23
45323;BME280;31382;50.200;8.674;2023-04-27T04:34:39;100584.81;;;8.10;56.34
45323;BME280;31382;50.200;8.674;2023-04-27T04:39:40;100598.50;;;8.07;56.60
45323;BME280;31382;50.200;8.674;2023-04-27T04:44:42;100588.09;;;8.04;56.43
45323;BME280;31382;50.200;8.674;2023-04-27T04:49:43;100584.50;;;7.95;56.56
45323;BME280;31382;50.200;8.674;2023-04-27T04:54:45;100591.69;;;7.95;56.86
45323;BME280;31382;50.200;8.674;2023-04-27T04:59:46;100591.69;;;7.95;56.99
45323;BME280;31382;50.200;8.674;2023-04-27T05:04:48;100596.75;;;7.98;56.37
45323;BME280;31382;50.200;8.674;2023-04-27T05:09:49;100595.13;;;8.05;56.23
45323;BME280;31382;50.200;8.674;2023-04-27T05:14:51;100593.00;;;8.09;56.33
45323;BME280;31382;50.200;8.674;2023-04-27T05:19:53;100607.22;;;8.09;56.60
45323;BME280;31382;50.200;8.674;2023-04-27T05:24:54;100611.97;;;8.16;56.60
45323;BME280;31382;50.200;8.674;2023-04-27T05:29:57;100612.03;;;8.24;56.68
45323;BME280;31382;50.200;8.674;2023-04-27T05:34:58;100617.53;;;8.40;56.14
45323;BME280;31382;50.200;8.674;2023-04-27T05:40:00;100613.56;;;8.44;56.09
45323;BME280;31382;50.200;8.674;2023-04-27T05:45:01;100610.66;;;8.56;55.96
45323;BME280;31382;50.200;8.674;2023-04-27T05:50:04;100612.06;;;8.68;56.01
45323;BME280;31382;50.200;8.674;2023-04-27T05:55:06;100615.31;;;8.80;56.03
45323;BME280;31382;50.200;8.674;2023-04-27T06:00:08;100633.38;;;9.04;55.52
45323;BME280;31382;50.200;8.674;2023-04-27T06:05:11;100628.28;;;9.19;55.21
45323;BME280;31382;50.200;8.674;2023-04-27T06:10:13;100634.25;;;9.39;55.08
45323;BME280;31382;50.200;8.674;2023-04-27T06:15:14;100629.31;;;9.60;54.99
45323;BME280;31382;50.200;8.674;2023-04-27T06:20:17;100626.66;;;9.85;54.74
45323;BME280;31382;50.200;8.674;2023-04-27T06:25:18;100632.25;;;10.00;54.44
45323;BME280;31382;50.200;8.674;2023-04-27T06:30:20;100636.81;;;10.24;53.79
45323;BME280;31382;50.200;8.674;2023-04-27T06:35:21;100639.00;;;10.37;53.09
45323;BME280;31382;50.200;8.674;2023-04-27T06:40:24;100637.84;;;10.64;52.71
45323;BME280;31382;50.200;8.674;2023-04-27T06:45:26;100643.19;;;10.88;52.04
45323;BME280;31382;50.200;8.674;2023-04-27T06:50:27;100645.81;;;11.13;51.42
45323;BME280;31382;50.200;8.674;2023-04-27T06:55:29;100647.97;;;11.34;50.43
45323;BME280;31382;50.200;8.674;2023-04-27T07:00:31;100657.84;;;11.42;50.17
45323;BME280;31382;50.200;8.674;2023-04-27T07:05:33;100653.44;;;11.49;49.50
45323;BME280;31382;50.200;8.674;2023-04-27T07:10:34;100648.66;;;11.67;49.32
45323;BME280;31382;50.200;8.674;2023-04-27T07:15:36;100656.69;;;11.76;48.73
45323;BME280;31382;50.200;8.674;2023-04-27T07:20:37;100653.84;;;12.08;48.48
45323;BME280;31382;50.200;8.674;2023-04-27T07:25:38;100652.69;;;12.26;48.02
45323;BME280;31382;50.200;8.674;2023-04-27T07:30:40;100648.94;;;12.35;47.27
45323;BME280;31382;50.200;8.674;2023-04-27T07:35:42;100644.75;;;12.33;47.19
45323;BME280;31382;50.200;8.674;2023-04-27T07:40:44;100641.19;;;12.55;46.79
45323;BME280;31382;50.200;8.674;2023-04-27T07:45:46;100640.59;;;12.68;46.60
45323;BME280;31382;50.200;8.674;2023-04-27T07:50:48;100641.25;;;12.85;45.81
45323;BME280;31382;50.200;8.674;2023-04-27T07:55:49;100636.53;;;13.02;45.43
45323;BME280;31382;50.200;8.674;2023-04-27T08:00:51;100640.72;;;13.04;45.12
45323;BME280;31382;50.200;8.674;2023-04-27T08:05:52;100639.97;;;13.10;44.88
45323;BME280;31382;50.200;8.674;2023-04-27T08:10:54;100635.78;;;13.23;45.11
45323;BME280;31382;50.200;8.674;2023-04-27T08:15:55;100632.38;;;13.29;44.42
45323;BME280;31382;50.200;8.674;2023-04-27T08:20:59;100633.38;;;13.28;44.24
45323;BME280;31382;50.200;8.674;2023-04-27T08:26:00;100632.75;;;13.41;44.09
45323;BME280;31382;50.200;8.674;2023-04-27T08:31:02;100627.84;;;13.66;44.43
45323;BME280;31382;50.200;8.674;2023-04-27T08:36:03;100622.13;;;13.91;43.59
45323;BME280;31382;50.200;8.674;2023-04-27T08:41:05;100624.53;;;14.00;42.81
45323;BME280;31382;50.200;8.674;2023-04-27T08:46:22;100614.16;;;14.25;42.53
45323;BME280;31382;50.200;8.674;2023-04-27T08:51:24;100624.72;;;14.20;42.01
45323;BME280;31382;50.200;8.674;2023-04-27T08:56:28;100625.69;;;14.34;41.44
45323;BME280;31382;50.200;8.674;2023-04-27T09:01:30;100617.09;;;14.52;41.19
45323;BME280;31382;50.200;8.674;2023-04-27T09:06:33;100623.50;;;14.66;40.77
45323;BME280;31382;50.200;8.674;2023-04-27T09:11:37;100623.19;;;14.82;40.26
45323;BME280;31382;50.200;8.674;2023-04-27T09:16:39;100608.31;;;15.00;40.04
45323;BME280;31382;50.200;8.674;2023-04-27T09:21:40;100610.38;;;15.33;39.49
45323;BME280;31382;50.200;8.674;2023-04-27T09:26:48;100600.69;;;15.58;38.62
45323;BME280;31382;50.200;8.674;2023-04-27T09:31:49;100603.41;;;15.58;38.82
45323;BME280;31382;50.200;8.674;2023-04-27T09:36:51;100605.50;;;15.56;38.72
45323;BME280;31382;50.200;8.674;2023-04-27T09:41:53;100599.34;;;15.82;37.91
45323;BME280;31382;50.200;8.674;2023-04-27T09:46:57;100598.78;;;16.14;37.17
45323;BME280;31382;50.200;8.674;2023-04-27T09:51:58;100589.84;;;16.33;36.88
45323;BME280;31382;50.200;8.674;2023-04-27T09:57:11;100582.31;;;16.55;36.54
45323;BME280;31382;50.200;8.674;2023-04-27T10:02:16;100580.66;;;16.48;36.43
45323;BME280;31382;50.200;8.674;2023-04-27T10:07:26;100562.06;;;16.51;36.35
45323;BME280;31382;50.200;8.674;2023-04-27T10:12:34;100559.56;;;16.83;36.02
45323;BME280;31382;50.200;8.674;2023-04-27T10:17:46;100563.06;;;16.90;36.10
45323;BME280;31382;50.200;8.674;2023-04-27T10:22:48;100565.66;;;17.37;35.67
45323;BME280;31382;50.200;8.674;2023-04-27T10:28:00;100559.47;;;17.61;35.26
45323;BME280;31382;50.200;8.674;2023-04-27T10:33:09;100554.97;;;17.87;34.75
45323;BME280;31382;50.200;8.674;2023-04-27T10:38:17;100555.44;;;18.34;33.93
45323;BME280;31382;50.200;8.674;2023-04-27T10:43:26;100551.69;;;18.79;33.31
45323;BME280;31382;50.200;8.674;2023-04-27T10:48:28;100552.19;;;19.13;33.44
45323;BME280;31382;50.200;8.674;2023-04-27T10:53:34;100543.81;;;19.45;32.82
45323;BME280;31382;50.200;8.674;2023-04-27T10:58:36;100547.41;;;19.75;32.44
45323;BME280;31382;50.200;8.674;2023-04-27T11:03:41;100544.44;;;20.19;31.78
45323;BME280;31382;50.200;8.674;2023-04-27T11:08:47;100538.28;;;20.35;31.57
45323;BME280;31382;50.200;8.674;2023-04-27T11:13:48;100539.81;;;20.19;30.67
45323;BME280;31382;50.200;8.674;2023-04-27T11:18:50;100529.25;;;20.11;30.85
45323;BME280;31382;50.200;8.674;2023-04-27T11:23:52;100526.66;;;20.40;30.15
45323;BME280;31382;50.200;8.674;2023-04-27T11:29:01;100513.13;;;20.45;30.06
45323;BME280;31382;50.200;8.674;2023-04-27T11:34:06;100519.53;;;20.86;30.29
45323;BME280;31382;50.200;8.674;2023-04-27T11:39:08;100518.97;;;21.25;29.63
45323;BME280;31382;50.200;8.674;2023-04-27T11:44:17;100513.19;;;21.50;29.56
45323;BME280;31382;50.200;8.674;2023-04-27T11:49:18;100507.72;;;21.50;28.94
45323;BME280;31382;50.200;8.674;2023-04-27T11:54:27;100498.34;;;21.17;29.19
45323;BME280;31382;50.200;8.674;2023-04-27T11:59:28;100492.94;;;21.63;28.89
45323;BME280;31382;50.200;8.674;2023-04-27T12:04:30;100493.44;;;21.93;28.06
45323;BME280;31382;50.200;8.674;2023-04-27T12:09:32;100478.69;;;22.11;28.14
45323;BME280;31382;50.200;8.674;2023-04-27T12:14:34;100483.50;;;22.21;27.67
45323;BME280;31382;50.200;8.674;2023-04-27T12:19:35;100484.16;;;21.77;27.43
45323;BME280;31382;50.200;8.674;2023-04-27T12:24:37;100478.81;;;21.54;27.46
45323;BME280;31382;50.200;8.674;2023-04-27T12:29:38;100463.88;;;22.24;27.31
45323;BME280;31382;50.200;8.674;2023-04-27T12:34:40;100468.56;;;21.78;27.06
45323;BME280;31382;50.200;8.674;2023-04-27T12:39:43;100452.19;;;21.49;27.62
45323;BME280;31382;50.200;8.674;2023-04-27T12:44:44;100457.28;;;21.91;27.22
45323;BME280;31382;50.200;8.674;2023-04-27T12:49:45;100450.63;;;22.21;26.82
45323;BME280;31382;50.200;8.674;2023-04-27T12:54:47;100453.47;;;22.09;26.96
45323;BME280;31382;50.200;8.674;2023-04-27T12:59:48;100450.06;;;21.85;27.13
45323;BME280;31382;50.200;8.674;2023-04-27T13:04:50;100439.44;;;22.06;26.98
45323;BME280;31382;50.200;8.674;2023-04-27T13:09:51;100433.66;;;22.36;26.65
45323;BME280;31382;50.200;8.674;2023-04-27T13:14:53;100434.09;;;22.50;26.41
45323;BME280;31382;50.200;8.674;2023-04-27T13:19:54;100433.28;;;22.49;26.49
45323;BME280;31382;50.200;8.674;2023-04-27T13:24:56;100425.53;;;22.85;26.43
45323;BME280;31382;50.200;8.674;2023-04-27T13:29:58;100429.16;;;23.13;26.12
45323;BME280;31382;50.200;8.674;2023-04-27T13:34:59;100425.50;;;23.62;25.32
45323;BME280;31382;50.200;8.674;2023-04-27T13:40:01;100419.13;;;23.83;25.37
45323;BME280;31382;50.200;8.674;2023-04-27T13:45:02;100419.41;;;24.19;25.42
45323;BME280;31382;50.200;8.674;2023-04-27T13:50:06;100412.84;;;24.25;24.87
45323;BME280;31382;50.200;8.674;2023-04-27T13:55:09;100410.97;;;24.36;24.88
45323;BME280;31382;50.200;8.674;2023-04-27T14:00:11;100404.81;;;24.66;24.66
45323;BME280;31382;50.200;8.674;2023-04-27T14:05:14;100415.38;;;24.37;24.90
45323;BME280;31382;50.200;8.674;2023-04-27T14:10:15;100415.94;;;24.39;24.80
45323;BME280;31382;50.200;8.674;2023-04-27T14:15:18;100413.09;;;24.71;24.25
45323;BME280;31382;50.200;8.674;2023-04-27T14:20:19;100411.91;;;24.52;24.17
45323;BME280;31382;50.200;8.674;2023-04-27T14:25:21;100406.63;;;25.13;23.73
45323;BME280;31382;50.200;8.674;2023-04-27T14:30:22;100407.53;;;25.81;22.48
45323;BME280;31382;50.200;8.674;2023-04-27T14:35:24;100400.63;;;25.37;23.27
45323;BME280;31382;50.200;8.674;2023-04-27T14:40:27;100400.81;;;24.94;23.27
45323;BME280;31382;50.200;8.674;2023-04-27T14:45:29;100402.72;;;24.89;23.26
45323;BME280;31382;50.200;8.674;2023-04-27T14:50:48;100405.03;;;25.43;22.94
45323;BME280;31382;50.200;8.674;2023-04-27T14:55:49;100396.53;;;25.86;23.11
45323;BME280;31382;50.200;8.674;2023-04-27T15:00:51;100404.50;;;25.57;23.06
45323;BME280;31382;50.200;8.674;2023-04-27T15:05:52;100394.50;;;24.99;23.46
45323;BME280;31382;50.200;8.674;2023-04-27T15:10:54;100391.28;;;25.33;23.42
45323;BME280;31382;50.200;8.674;2023-04-27T15:15:58;100384.69;;;25.55;23.43
45323;BME280;31382;50.200;8.674;2023-04-27T15:21:01;100386.06;;;25.72;22.91
45323;BME280;31382;50.200;8.674;2023-04-27T15:26:02;100384.69;;;25.60;22.95
45323;BME280;31382;50.200;8.674;2023-04-27T15:31:04;100373.41;;;25.51;23.19
45323;BME280;31382;50.200;8.674;2023-04-27T15:36:05;100356.06;;;25.35;24.05
45323;BME280;31382;50.200;8.674;2023-04-27T15:41:06;100351.34;;;25.20;24.14
45323;BME280;31382;50.200;8.674;2023-04-27T15:46:08;100341.69;;;25.02;24.26
45323;BME280;31382;50.200;8.674;2023-04-27T15:51:10;100327.34;;;24.80;24.26
45323;BME280;31382;50.200;8.674;2023-04-27T15:56:12;100324.06;;;24.83;24.19
45323;BME280;31382;50.200;8.674;2023-04-27T16:01:13;100327.03;;;24.66;24.13
45323;BME280;31382;50.200;8.674;2023-04-27T16:06:15;100315.22;;;24.76;24.57
45323;BME280;31382;50.200;8.674;2023-04-27T16:11:16;100311.66;;;24.80;24.11
45323;BME280;31382;50.200;8.674;2023-04-27T16:16:18;100304.75;;;24.67;24.45
45323;BME280;31382;50.200;8.674;2023-04-27T16:21:20;100297.09;;;24.80;24.50
45323;BME280;31382;50.200;8.674;2023-04-27T16:26:21;100306.47;;;25.20;23.97
45323;BME280;31382;50.200;8.674;2023-04-27T16:31:24;100306.78;;;25.49;23.29
45323;BME280;31382;50.200;8.674;2023-04-27T16:36:26;100298.50;;;25.59;23.41
45323;BME280;31382;50.200;8.674;2023-04-27T16:41:27;100297.72;;;25.33;23.83
45323;BME280;31382;50.200;8.674;2023-04-27T16:46:29;100289.41;;;24.97;23.86
45323;BME280;31382;50.200;8.674;2023-04-27T16:51:31;100290.34;;;24.40;24.12
45323;BME280;31382;50.200;8.674;2023-04-27T16:56:34;100305.03;;;23.98;24.60
45323;BME280;31382;50.200;8.674;2023-04-27T17:01:36;100304.16;;;23.54;24.97
45323;BME280;31382;50.200;8.674;2023-04-27T17:06:39;100303.66;;;23.25;25.21
45323;BME280;31382;50.200;8.674;2023-04-27T17:11:41;100321.31;;;23.07;25.88
45323;BME280;31382;50.200;8.674;2023-04-27T17:16:42;100319.09;;;22.77;26.06
45323;BME280;31382;50.200;8.674;2023-04-27T17:21:43;100314.97;;;22.52;26.34
45323;BME280;31382;50.200;8.674;2023-04-27T17:26:45;100312.66;;;22.22;26.60
45323;BME280;31382;50.200;8.674;2023-04-27T17:31:48;100307.97;;;22.01;27.24
45323;BME280;31382;50.200;8.674;2023-04-27T17:36:50;100292.25;;;21.74;27.23
45323;BME280;31382;50.200;8.674;2023-04-27T17:41:52;100290.72;;;21.44;27.71
45323;BME280;31382;50.200;8.674;2023-04-27T17:46:53;100296.84;;;21.17;28.28
45323;BME280;31382;50.200;8.674;2023-04-27T17:51:55;100296.16;;;20.93;28.59
45323;BME280;31382;50.200;8.674;2023-04-27T17:56:56;100304.47;;;20.70;29.13
45323;BME280;31382;50.200;8.674;2023-04-27T18:01:57;100302.16;;;20.50;28.97
45323;BME280;31382;50.200;8.674;2023-04-27T18:06:59;100301.81;;;20.34;29.75
45323;BME280;31382;50.200;8.674;2023-04-27T18:12:00;100298.56;;;20.09;30.38
45323;BME280;31382;50.200;8.674;2023-04-27T18:17:02;100299.19;;;19.75;31.70
45323;BME280;31382;50.200;8.674;2023-04-27T18:22:04;100298.94;;;19.53;32.47
45323;BME280;31382;50.200;8.674;2023-04-27T18:27:05;100293.22;;;19.31;33.25
45323;BME280;31382;50.200;8.674;2023-04-27T18:32:07;100300.28;;;19.09;34.11
45323;BME280;31382;50.200;8.674;2023-04-27T18:37:09;100291.94;;;18.80;34.38
45323;BME280;31382;50.200;8.674;2023-04-27T18:42:10;100295.56;;;18.55;34.89
45323;BME280;31382;50.200;8.674;2023-04-27T18:47:12;100289.56;;;18.35;35.60
45323;BME280;31382;50.200;8.674;2023-04-27T18:52:14;100301.31;;;18.17;35.80
45323;BME280;31382;50.200;8.674;2023-04-27T18:57:15;100308.22;;;17.94;36.20
45323;BME280;31382;50.200;8.674;2023-04-27T19:02:16;100319.56;;;17.66;36.86
45323;BME280;31382;50.200;8.674;2023-04-27T19:07:18;100323.09;;;17.48;37.06
45323;BME280;31382;50.200;8.674;2023-04-27T19:12:21;100330.81;;;17.19;37.29
45323;BME280;31382;50.200;8.674;2023-04-27T19:17:22;100334.38;;;16.88;37.99
45323;BME280;31382;50.200;8.674;2023-04-27T19:22:24;100326.13;;;16.63;38.03
45323;BME280;31382;50.200;8.674;2023-04-27T19:27:27;100323.59;;;16.68;38.25
45323;BME280;31382;50.200;8.674;2023-04-27T19:32:29;100321.94;;;16.67;38.69
45323;BME280;31382;50.200;8.674;2023-04-27T19:37:30;100316.31;;;16.62;39.11
45323;BME280;31382;50.200;8.674;2023-04-27T19:42:32;100318.47;;;16.53;39.23
45323;BME280;31382;50.200;8.674;2023-04-27T19:47:34;100322.66;;;16.42;39.89
45323;BME280;31382;50.200;8.674;2023-04-27T19:52:35;100321.63;;;16.37;40.05
45323;BME280;31382;50.200;8.674;2023-04-27T19:57:37;100311.63;;;16.37;40.87
45323;BME280;31382;50.200;8.674;2023-04-27T20:02:38;100302.69;;;16.30;41.63
45323;BME280;31382;50.200;8.674;2023-04-27T20:07:40;100296.88;;;16.20;41.84
45323;BME280;31382;50.200;8.674;2023-04-27T20:12:41;100295.28;;;16.05;42.29
45323;BME280;31382;50.200;8.674;2023-04-27T20:17:56;100296.09;;;15.99;41.96
45323;BME280;31382;50.200;8.674;2023-04-27T20:22:58;100290.13;;;15.84;41.69
45323;BME280;31382;50.200;8.674;2023-04-27T20:27:59;100293.03;;;15.62;41.76
45323;BME280;31382;50.200;8.674;2023-04-27T20:33:00;100293.47;;;15.53;41.52
45323;BME280;31382;50.200;8.674;2023-04-27T20:38:03;100283.25;;;15.48;41.23
45323;BME280;31382;50.200;8.674;2023-04-27T20:43:05;100279.72;;;15.54;41.16
45323;BME280;31382;50.200;8.674;2023-04-27T20:48:08;100272.59;;;15.60;41.11
45323;BME280;31382;50.200;8.674;2023-04-27T20:53:11;100268.00;;;15.67;41.18
45323;BME280;31382;50.200;8.674;2023-04-27T20:58:13;100254.88;;;15.71;41.26
45323;BME280;31382;50.200;8.674;2023-04-27T21:03:14;100269.91;;;15.66;41.69
45323;BME280;31382;50.200;8.674;2023-04-27T21:08:16;100268.84;;;15.67;41.92
45323;BME280;31382;50.200;8.674;2023-04-27T21:13:18;100276.13;;;15.67;42.41
45323;BME280;31382;50.200;8.674;2023-04-27T21:18:20;100272.00;;;15.64;43.12
45323;BME280;31382;50.200;8.674;2023-04-27T21:23:33;100266.16;;;15.61;43.72
45323;BME280;31382;50.200;8.674;2023-04-27T21:28:35;100260.53;;;15.56;43.98
45323;BME280;31382;50.200;8.674;2023-04-27T21:33:37;100253.25;;;15.50;44.49
45323;BME280;31382;50.200;8.674;2023-04-27T21:38:38;100250.13;;;15.46;44.24
45323;BME280;31382;50.200;8.674;2023-04-27T21:43:39;100250.34;;;15.44;44.19
45323;BME280;31382;50.200;8.674;2023-04-27T21:48:42;100249.94;;;15.41;44.03
45323;BME280;31382;50.200;8.674;2023-04-27T21:53:43;100245.97;;;15.37;43.96
45323;BME280;31382;50.200;8.674;2023-04-27T21:58:45;100250.34;;;15.31;44.27
45323;BME280;31382;50.200;8.674;2023-04-27T22:03:46;100249.94;;;15.27;44.28
45323;BME280;31382;50.200;8.674;2023-04-27T22:08:48;100247.66;;;15.24;44.29
45323;BME280;31382;50.200;8.674;2023-04-27T22:13:49;100248.28;;;15.26;44.29
45323;BME280;31382;50.200;8.674;2023-04-27T22:18:51;100242.44;;;15.16;44.32
45323;BME280;31382;50.200;8.674;2023-04-27T22:23:53;100246.00;;;15.17;44.45
45323;BME280;31382;50.200;8.674;2023-04-27T22:28:55;100230.56;;;15.17;44.49
45323;BME280;31382;50.200;8.674;2023-04-27T22:33:57;100222.44;;;15.17;44.77
45323;BME280;31382;50.200;8.674;2023-04-27T22:38:58;100215.16;;;15.18;45.29
45323;BME280;31382;50.200;8.674;2023-04-27T22:44:00;100235.16;;;15.10;45.31
45323;BME280;31382;50.200;8.674;2023-04-27T22:49:01;100224.31;;;14.97;45.63
45323;BME280;31382;50.200;8.674;2023-04-27T22:54:03;100211.84;;;14.96;45.58
45323;BME280;31382;50.200;8.674;2023-04-27T22:59:04;100215.97;;;14.98;45.73
45323;BME280;31382;50.200;8.674;2023-04-27T23:04:06;100206.44;;;14.89;45.88
45323;BME280;31382;50.200;8.674;2023-04-27T23:09:09;100218.91;;;14.97;45.94
45323;BME280;31382;50.200;8.674;2023-04-27T23:14:10;100199.13;;;15.03;45.67
45323;BME280;31382;50.200;8.674;2023-04-27T23:19:12;100201.00;;;15.02;45.95
45323;BME280;31382;50.200;8.674;2023-04-27T23:24:13;100199.97;;;15.03;45.89
45323;BME280;31382;50.200;8.674;2023-04-27T23:29:15;100195.19;;;14.99;46.46
45323;BME280;31382;50.200;8.674;2023-04-27T23:34:16;100189.13;;;14.97;46.61
45323;BME280;31382;50.200;8.674;2023-04-27T23:39:18;100183.94;;;14.95;46.83
45323;BME280;31382;50.200;8.674;2023-04-27T23:44:20;100173.72;;;14.97;47.01
45323;BME280;31382;50.200;8.674;2023-04-27T23:49:21;100168.13;;;14.99;47.41
45323;BME280;31382;50.200;8.674;2023-04-27T23:54:22;100166.63;;;14.96;47.76
45323;BME280;31382;50.200;8.674;2023-04-27T23:59:24;100175.59;;;14.90;47.93
